createdAt,value
2019-06-23T00:01:20.229Z,68.51
2019-06-23T00:03:51.933Z,67.63
2019-06-23T00:06:24.936Z,67.14
2019-06-23T00:08:59.002Z,67.10
2019-06-23T00:11:33.773Z,67.23
2019-06-23T00:14:06.367Z,67.27
2019-06-23T00:16:39.018Z,66.70
2019-06-23T00:19:11.075Z,67.07
2019-06-23T00:21:43.759Z,69.01
2019-06-23T00:24:18.979Z,72.29
2019-06-23T00:26:52.262Z,73.60
2019-06-23T00:29:24.402Z,74.23
2019-06-23T00:32:03.159Z,74.28
2019-06-23T00:34:35.255Z,73.56
2019-06-23T00:37:11.043Z,73.17
2019-06-23T00:39:42.781Z,73.07
2019-06-23T00:42:17.148Z,73.74
2019-06-23T00:44:49.281Z,73.95
2019-06-23T00:47:22.745Z,72.49
2019-06-23T00:49:55.222Z,72.25
2019-06-23T00:52:30.970Z,75.68
2019-06-23T00:55:04.535Z,77.46
2019-06-23T00:57:37.733Z,77.01
2019-06-23T01:00:10.713Z,78.02
2019-06-23T01:02:54.312Z,78.28
2019-06-23T01:05:35.596Z,77.87
2019-06-23T01:08:11.690Z,75.12
2019-06-23T01:10:43.690Z,71.50
2019-06-23T01:13:15.539Z,72.26
2019-06-23T01:15:50.545Z,74.07
2019-06-23T01:18:25.196Z,74.24
2019-06-23T01:20:58.417Z,74.12
2019-06-23T01:23:33.317Z,74.32
2019-06-23T01:26:09.054Z,75.32
2019-06-23T01:28:44.044Z,75.72
2019-06-23T01:31:16.671Z,74.87
2019-06-23T01:33:51.092Z,75.28
2019-06-23T01:36:24.376Z,75.03
2019-06-23T01:38:58.582Z,74.55
2019-06-23T01:41:32.457Z,72.72
2019-06-23T01:44:05.057Z,71.57
2019-06-23T01:46:39.822Z,72.48
2019-06-23T01:49:16.045Z,74.62
2019-06-23T01:51:49.626Z,76.04
2019-06-23T01:54:23.714Z,76.66
2019-06-23T01:56:55.598Z,77.78
2019-06-23T01:59:28.658Z,77.53
2019-06-23T02:02:04.478Z,77.21
2019-06-23T02:04:40.342Z,76.44
2019-06-23T02:07:10.946Z,76.20
2019-06-23T02:09:43.067Z,75.59
2019-06-23T02:12:15.846Z,75.37
2019-06-23T02:14:48.707Z,75.01
2019-06-23T02:17:24.501Z,74.21
2019-06-23T02:20:01.956Z,72.74
2019-06-23T02:22:37.368Z,73.79
2019-06-23T02:25:18.575Z,74.81
2019-06-23T02:27:51.435Z,74.51
2019-06-23T02:30:32.554Z,74.93
2019-06-23T02:33:04.776Z,77.76
2019-06-23T02:35:45.908Z,78.86
2019-06-23T02:38:21.476Z,76.76
2019-06-23T02:40:52.729Z,77.51
2019-06-23T02:43:25.931Z,77.90
2019-06-23T02:46:03.750Z,77.89
2019-06-23T02:48:43.271Z,77.58
2019-06-23T02:51:21.855Z,77.60
2019-06-23T02:54:07.753Z,78.59
2019-06-23T02:56:47.181Z,79.76
2019-06-23T02:59:22.662Z,80.54
2019-06-23T03:01:54.936Z,81.69
2019-06-23T03:04:27.972Z,82.22
2019-06-23T03:07:02.038Z,82.45
2019-06-23T03:09:37.487Z,82.76
2019-06-23T03:12:11.923Z,83.24
2019-06-23T03:14:43.395Z,83.77
2019-06-23T03:17:17.847Z,83.50
2019-06-23T03:19:53.911Z,83.59
2019-06-23T03:22:28.718Z,83.28
2019-06-23T03:25:01.131Z,82.95
2019-06-23T03:27:34.281Z,82.10
2019-06-23T03:30:07.278Z,81.84
2019-06-23T03:32:40.061Z,82.25
2019-06-23T03:35:12.168Z,82.79
2019-06-23T03:37:47.120Z,82.27
2019-06-23T03:40:27.290Z,82.43
2019-06-23T03:43:03.752Z,82.44
2019-06-23T03:45:38.021Z,82.77
2019-06-23T03:48:10.881Z,82.13
2019-06-23T03:50:43.091Z,82.35
2019-06-23T03:53:16.878Z,82.31
2019-06-23T03:55:49.784Z,82.96
2019-06-23T03:58:22.196Z,83.54
2019-06-23T04:00:54.343Z,84.52
2019-06-23T04:03:25.628Z,84.62
2019-06-23T04:05:59.154Z,83.83
2019-06-23T04:08:31.330Z,83.95
2019-06-23T04:11:05.576Z,83.74
2019-06-23T04:13:37.333Z,83.92
2019-06-23T04:16:12.797Z,85.09
2019-06-23T04:18:48.327Z,84.94
2019-06-23T04:21:24.037Z,84.28
2019-06-23T04:23:55.448Z,84.99
2019-06-23T04:26:30.045Z,84.50
2019-06-23T04:29:02.348Z,85.00
2019-06-23T04:31:35.820Z,85.86
2019-06-23T04:34:07.760Z,85.07
2019-06-23T04:36:42.310Z,85.21
2019-06-23T04:39:18.030Z,85.47
2019-06-23T04:41:49.439Z,83.43
2019-06-23T04:44:22.403Z,83.45
2019-06-23T04:46:55.496Z,85.88
2019-06-23T04:49:28.602Z,84.23
2019-06-23T04:52:02.763Z,85.04
2019-06-23T04:54:36.257Z,84.81
2019-06-23T04:57:08.548Z,86.28
2019-06-23T04:59:40.824Z,86.52
2019-06-23T05:02:16.700Z,87.58
2019-06-23T05:04:49.686Z,87.99
2019-06-23T05:07:23.859Z,88.50
2019-06-23T05:09:55.706Z,88.30
2019-06-23T05:12:28.762Z,86.55
2019-06-23T05:15:03.042Z,86.11
2019-06-23T05:17:53.663Z,86.48
2019-06-23T05:20:28.653Z,85.42
2019-06-23T05:23:03.382Z,85.67
2019-06-23T05:25:34.835Z,86.34
2019-06-23T05:28:07.764Z,86.25
2019-06-23T05:30:40.816Z,86.54
2019-06-23T05:33:15.343Z,85.43
2019-06-23T05:35:46.744Z,84.26
2019-06-23T05:38:22.730Z,83.84
2019-06-23T05:40:56.533Z,83.92
2019-06-23T05:43:30.753Z,82.32
2019-06-23T05:46:04.730Z,81.61
2019-06-23T05:48:37.790Z,81.61
2019-06-23T05:51:11.784Z,81.79
2019-06-23T05:53:47.762Z,83.03
2019-06-23T05:56:23.488Z,82.20
2019-06-23T05:58:55.920Z,82.94
2019-06-23T06:01:28.687Z,82.67
2019-06-23T06:04:01.874Z,82.76
2019-06-23T06:06:36.101Z,82.64
2019-06-23T06:09:07.916Z,81.73
2019-06-23T06:11:40.846Z,81.73
2019-06-23T06:14:12.317Z,82.82
2019-06-23T06:16:43.622Z,82.32
2019-06-23T06:19:17.020Z,81.63
2019-06-23T06:21:51.213Z,82.54
2019-06-23T06:24:25.323Z,82.34
2019-06-23T06:26:59.202Z,82.96
2019-06-23T06:29:31.248Z,83.07
2019-06-23T06:32:05.188Z,82.21
2019-06-23T06:34:38.041Z,81.28
2019-06-23T06:37:11.461Z,81.51
2019-06-23T06:39:43.226Z,81.92
2019-06-23T06:42:14.443Z,82.07
2019-06-23T06:44:47.257Z,82.45
2019-06-23T06:47:20.291Z,81.21
2019-06-23T06:49:53.211Z,81.31
2019-06-23T06:52:26.232Z,82.22
2019-06-23T06:54:58.524Z,82.36
2019-06-23T06:57:32.376Z,80.97
2019-06-23T07:00:07.628Z,81.00
2019-06-23T07:02:52.557Z,80.71
2019-06-23T07:05:35.272Z,80.61
2019-06-23T07:08:10.165Z,80.06
2019-06-23T07:10:48.108Z,80.42
2019-06-23T07:13:24.052Z,82.90
2019-06-23T07:15:56.247Z,83.32
2019-06-23T07:18:29.260Z,84.25
2019-06-23T07:21:03.656Z,85.35
2019-06-23T07:23:39.178Z,85.06
2019-06-23T07:26:13.567Z,83.94
2019-06-23T07:28:47.626Z,84.55
2019-06-23T07:32:00.203Z,86.90
2019-06-23T07:34:35.285Z,86.27
2019-06-23T07:37:08.378Z,86.95
2019-06-23T07:39:42.440Z,88.00
2019-06-23T07:42:18.329Z,88.35
2019-06-23T07:44:55.504Z,89.71
2019-06-23T07:47:33.666Z,89.50
2019-06-23T07:50:08.164Z,88.20
2019-06-23T07:52:40.462Z,88.80
2019-06-23T07:55:35.912Z,90.55
2019-06-23T07:58:12.247Z,89.84
2019-06-23T08:00:51.871Z,90.87
2019-06-23T08:03:28.268Z,88.64
2019-06-23T08:06:01.225Z,87.71
2019-06-23T08:08:38.514Z,88.62
2019-06-23T08:11:11.604Z,89.55
2019-06-23T08:13:46.822Z,91.35
2019-06-23T08:16:23.248Z,91.16
2019-06-23T08:18:55.889Z,90.77
2019-06-23T08:21:27.580Z,90.10
2019-06-23T08:24:03.773Z,89.51
2019-06-23T08:26:39.435Z,89.08
2019-06-23T08:29:13.634Z,88.80
2019-06-23T08:31:46.923Z,89.86
2019-06-23T08:34:20.385Z,89.83
2019-06-23T08:36:52.812Z,89.02
2019-06-23T08:39:31.086Z,90.23
2019-06-23T08:42:02.888Z,89.38
2019-06-23T08:44:38.904Z,87.64
2019-06-23T08:47:13.005Z,89.13
2019-06-23T08:49:51.847Z,89.34
2019-06-23T08:52:24.721Z,88.79
2019-06-23T08:54:58.246Z,88.05
2019-06-23T08:57:34.709Z,86.51
2019-06-23T09:00:08.385Z,84.79
2019-06-23T09:02:49.010Z,86.39
2019-06-23T09:05:29.165Z,82.68
2019-06-23T09:08:01.739Z,80.57
2019-06-23T09:10:45.624Z,80.90
2019-06-23T09:13:17.057Z,78.56
2019-06-23T09:15:50.125Z,75.27
2019-06-23T09:18:24.615Z,77.45
2019-06-23T09:20:55.873Z,77.56
2019-06-23T09:23:28.104Z,77.56
2019-06-23T09:26:05.171Z,77.39
2019-06-23T09:28:38.093Z,77.97
2019-06-23T09:31:11.089Z,77.94
2019-06-23T09:33:45.852Z,78.63
2019-06-23T09:36:22.603Z,78.42
2019-06-23T09:38:56.923Z,80.54
2019-06-23T09:41:30.076Z,80.59
2019-06-23T09:44:02.101Z,79.56
2019-06-23T09:46:35.232Z,79.47
2019-06-23T09:49:08.413Z,79.51
2019-06-23T09:51:41.087Z,79.22
2019-06-23T09:54:16.604Z,80.34
2019-06-23T09:56:50.150Z,80.78
2019-06-23T09:59:23.191Z,81.28
2019-06-23T10:01:55.181Z,81.92
2019-06-23T10:04:27.589Z,80.31
2019-06-23T10:06:59.344Z,81.54
2019-06-23T10:09:31.162Z,79.85
2019-06-23T10:12:13.220Z,79.52
2019-06-23T10:14:50.418Z,80.37
2019-06-23T10:17:23.315Z,80.25
2019-06-23T10:19:56.414Z,81.45
2019-06-23T10:22:28.624Z,82.70
2019-06-23T10:25:05.074Z,83.02
2019-06-23T10:27:38.293Z,83.99
2019-06-23T10:30:13.452Z,82.87
2019-06-23T10:32:47.917Z,83.23
2019-06-23T10:35:39.213Z,82.16
2019-06-23T10:38:15.951Z,81.21
2019-06-23T10:40:49.634Z,81.57
2019-06-23T10:43:24.161Z,81.04
2019-06-23T10:45:59.908Z,79.97
2019-06-23T10:48:34.471Z,78.18
2019-06-23T10:51:08.321Z,75.40
2019-06-23T10:53:41.330Z,75.35
2019-06-23T10:56:15.376Z,74.85
2019-06-23T10:58:49.382Z,74.79
2019-06-23T11:01:21.532Z,73.65
2019-06-23T11:03:55.230Z,74.61
2019-06-23T11:06:30.421Z,72.99
2019-06-23T11:09:02.559Z,72.68
2019-06-23T11:11:35.361Z,70.73
2019-06-23T11:14:08.631Z,71.49
2019-06-23T11:16:42.344Z,70.18
2019-06-23T11:19:14.603Z,70.45
2019-06-23T11:21:46.392Z,69.73
2019-06-23T11:24:21.873Z,69.76
2019-06-23T11:26:55.683Z,69.71
2019-06-23T11:29:30.257Z,69.32
2019-06-23T11:32:03.517Z,69.21
2019-06-23T11:34:36.801Z,68.97
2019-06-23T11:37:12.298Z,66.41
2019-06-23T11:39:51.965Z,67.31
2019-06-23T11:42:19.981Z,67.94
2019-06-23T11:44:54.667Z,67.55
2019-06-23T11:47:30.260Z,64.56
2019-06-23T11:50:02.056Z,65.68
2019-06-23T11:52:35.444Z,65.58
2019-06-23T11:55:10.704Z,64.81
2019-06-23T11:57:51.379Z,65.45
2019-06-23T12:00:42.516Z,61.86
2019-06-23T12:03:14.224Z,62.67
2019-06-23T12:05:48.239Z,62.47
2019-06-23T12:08:21.113Z,63.97
2019-06-23T12:10:52.857Z,65.93
2019-06-23T12:13:26.270Z,66.12
2019-06-23T12:15:59.227Z,65.18
2019-06-23T12:18:32.269Z,62.97
2019-06-23T12:21:05.067Z,66.44
2019-06-23T12:23:37.995Z,67.32
2019-06-23T12:26:10.978Z,66.89
2019-06-23T12:28:43.901Z,66.18
2019-06-23T12:31:18.132Z,66.57
2019-06-23T12:33:54.013Z,67.83
2019-06-23T12:36:27.074Z,67.25
2019-06-23T12:38:59.966Z,67.96
2019-06-23T12:41:34.204Z,68.13
2019-06-23T12:44:09.092Z,67.73
2019-06-23T12:46:43.640Z,68.04
2019-06-23T12:49:17.088Z,67.34
2019-06-23T12:51:51.585Z,68.57
2019-06-23T12:54:25.198Z,69.70
2019-06-23T12:57:00.983Z,69.33
2019-06-23T12:59:35.840Z,69.69
2019-06-23T13:02:08.498Z,69.24
2019-06-23T13:04:43.574Z,67.82
2019-06-23T13:07:18.273Z,68.32
2019-06-23T13:09:50.235Z,69.56
2019-06-23T13:12:22.556Z,70.28
2019-06-23T13:14:56.210Z,70.12
2019-06-23T13:17:29.230Z,69.70
2019-06-23T13:20:02.322Z,69.22
2019-06-23T13:22:36.231Z,69.59
2019-06-23T13:25:08.156Z,70.05
2019-06-23T13:27:42.788Z,68.85
2019-06-23T13:30:42.114Z,69.17
2019-06-23T13:33:14.496Z,69.72
2019-06-23T13:35:48.171Z,70.36
2019-06-23T13:38:20.149Z,69.87
2019-06-23T13:40:57.024Z,70.29
2019-06-23T13:43:40.108Z,69.64
2019-06-23T13:46:14.426Z,68.62
2019-06-23T13:48:47.593Z,68.86
2019-06-23T13:51:19.448Z,68.67
2019-06-23T13:53:53.405Z,68.21
2019-06-23T13:56:26.371Z,69.25
2019-06-23T13:58:59.841Z,69.17
2019-06-23T14:01:32.664Z,69.24
2019-06-23T14:04:06.641Z,68.83
2019-06-23T14:06:38.705Z,69.49
2019-06-23T14:09:13.201Z,69.26
2019-06-23T14:11:44.493Z,70.82
2019-06-23T14:14:17.826Z,74.40
2019-06-23T14:16:56.373Z,78.21
2019-06-23T14:19:27.577Z,80.05
2019-06-23T14:22:01.949Z,80.84
2019-06-23T14:24:48.462Z,82.03
2019-06-23T14:27:21.955Z,82.39
2019-06-23T14:29:53.777Z,81.72
2019-06-23T14:32:26.621Z,84.24
2019-06-23T14:34:59.733Z,83.86
2019-06-23T14:37:32.577Z,80.94
2019-06-23T14:40:08.361Z,81.32
2019-06-23T14:42:44.550Z,81.75
2019-06-23T14:45:19.505Z,81.46
2019-06-23T14:48:12.601Z,79.97
2019-06-23T14:50:57.478Z,82.15
2019-06-23T14:53:34.159Z,81.66
2019-06-23T14:56:05.958Z,81.80
2019-06-23T14:58:39.960Z,82.48
2019-06-23T15:01:15.426Z,81.34
2019-06-23T15:03:49.539Z,80.58
2019-06-23T15:06:20.794Z,80.84
2019-06-23T15:08:52.861Z,80.21
2019-06-23T15:11:26.874Z,80.26
2019-06-23T15:14:02.584Z,80.58
2019-06-23T15:16:35.928Z,81.12
2019-06-23T15:19:07.122Z,80.59
2019-06-23T15:21:40.996Z,81.44
2019-06-23T15:24:14.890Z,81.66
2019-06-23T15:26:47.925Z,81.73
2019-06-23T15:29:20.900Z,81.32
2019-06-23T15:31:54.442Z,81.95
2019-06-23T15:34:26.035Z,81.89
2019-06-23T15:37:00.828Z,81.99
2019-06-23T15:39:32.039Z,80.46
2019-06-23T15:42:04.936Z,82.11
2019-06-23T15:44:38.947Z,81.74
2019-06-23T15:47:12.264Z,81.68
2019-06-23T15:49:43.906Z,81.58
2019-06-23T15:52:18.118Z,81.70
2019-06-23T15:55:09.198Z,81.24
2019-06-23T15:57:41.242Z,80.68
2019-06-23T16:00:14.619Z,80.75
2019-06-23T16:03:01.208Z,80.59
2019-06-23T16:05:38.240Z,81.21
2019-06-23T16:08:12.041Z,81.81
2019-06-23T16:10:44.268Z,81.52
2019-06-23T16:13:19.626Z,81.74
2019-06-23T16:15:58.142Z,81.46
2019-06-23T16:18:31.957Z,81.68
2019-06-23T16:21:05.779Z,82.19
2019-06-23T16:23:40.434Z,81.12
2019-06-23T16:26:13.960Z,80.45
2019-06-23T16:28:48.337Z,80.35
2019-06-23T16:31:20.209Z,80.17
2019-06-23T16:33:54.804Z,79.63
2019-06-23T16:36:26.203Z,79.15
2019-06-23T16:39:01.821Z,78.10
2019-06-23T16:41:35.260Z,75.83
2019-06-23T16:44:10.673Z,76.49
2019-06-23T16:46:42.172Z,77.09
2019-06-23T16:49:18.301Z,77.35
2019-06-23T16:51:50.239Z,76.62
2019-06-23T16:54:23.399Z,76.79
2019-06-23T16:57:07.442Z,74.23
2019-06-23T16:59:48.714Z,73.84
2019-06-23T17:02:22.244Z,72.57
2019-06-23T17:04:56.359Z,72.91
2019-06-23T17:07:30.851Z,72.65
2019-06-23T17:10:02.364Z,72.37
2019-06-23T17:12:49.067Z,72.26
2019-06-23T17:15:20.412Z,73.20
2019-06-23T17:18:01.419Z,72.87
2019-06-23T17:20:57.152Z,73.33
2019-06-23T17:23:31.737Z,73.42
2019-06-23T17:26:05.472Z,73.92
2019-06-23T17:28:37.842Z,74.94
2019-06-23T17:31:11.580Z,74.89
2019-06-23T17:33:43.524Z,75.18
2019-06-23T17:36:15.648Z,74.96
2019-06-23T17:38:47.846Z,75.28
2019-06-23T17:41:21.515Z,75.56
2019-06-23T17:43:55.261Z,74.96
2019-06-23T17:46:29.873Z,75.40
2019-06-23T17:49:02.678Z,75.36
2019-06-23T17:51:37.516Z,75.75
2019-06-23T17:54:12.176Z,76.49
2019-06-23T17:56:44.209Z,76.26
2019-06-23T17:59:19.778Z,76.71
2019-06-23T18:01:53.830Z,76.61
2019-06-23T18:04:26.882Z,77.24
2019-06-23T18:07:02.878Z,77.47
2019-06-23T18:09:38.603Z,77.38
2019-06-23T18:12:11.900Z,77.22
2019-06-23T18:14:44.279Z,77.78
2019-06-23T18:17:17.787Z,77.16
2019-06-23T18:19:50.792Z,77.48
2019-06-23T18:22:25.842Z,78.27
2019-06-23T18:24:59.741Z,79.05
2019-06-23T18:27:33.179Z,80.19
2019-06-23T18:30:08.484Z,81.27
2019-06-23T18:32:41.854Z,81.64
2019-06-23T18:35:32.836Z,82.24
2019-06-23T18:38:05.938Z,82.40
2019-06-23T18:40:46.660Z,82.76
2019-06-23T18:43:33.691Z,82.87
2019-06-23T18:45:54.148Z,82.79
2019-06-23T18:48:28.880Z,82.90
2019-06-23T18:51:01.283Z,82.97
2019-06-23T18:53:34.036Z,83.05
2019-06-23T18:56:06.242Z,83.30
2019-06-23T18:58:37.960Z,82.83
2019-06-23T19:01:12.174Z,83.21
2019-06-23T19:03:44.166Z,83.02
2019-06-23T19:06:22.809Z,82.96
2019-06-23T19:08:55.793Z,83.18
2019-06-23T19:11:29.710Z,83.12
2019-06-23T19:14:03.433Z,83.50
2019-06-23T19:16:34.946Z,83.79
2019-06-23T19:19:08.082Z,83.91
2019-06-23T19:21:39.282Z,84.02
2019-06-23T19:24:12.108Z,83.97
2019-06-23T19:26:44.188Z,83.91
2019-06-23T19:29:23.247Z,83.50
2019-06-23T19:31:54.518Z,83.10
2019-06-23T19:34:28.720Z,82.80
2019-06-23T19:37:02.034Z,82.18
2019-06-23T19:39:34.757Z,82.00
2019-06-23T19:42:07.385Z,81.80
2019-06-23T19:44:39.497Z,81.32
2019-06-23T19:47:11.118Z,80.87
2019-06-23T19:49:42.967Z,81.12
2019-06-23T19:52:19.718Z,81.10
2019-06-23T19:54:52.784Z,81.23
2019-06-23T19:57:25.550Z,81.31
2019-06-23T20:00:00.262Z,81.17
2019-06-23T20:02:34.247Z,81.40
2019-06-23T20:05:10.587Z,80.70
2019-06-23T20:07:42.348Z,80.57
2019-06-23T20:10:27.898Z,80.58
2019-06-23T20:12:59.298Z,80.64
2019-06-23T20:15:37.489Z,80.31
2019-06-23T20:18:11.305Z,80.02
2019-06-23T20:20:43.762Z,79.65
2019-06-23T20:23:16.723Z,79.54
2019-06-23T20:25:51.026Z,79.63
2019-06-23T20:28:24.791Z,79.44
2019-06-23T20:30:56.466Z,78.98
2019-06-23T20:33:29.394Z,78.50
2019-06-23T20:36:01.510Z,77.96
2019-06-23T20:38:34.513Z,77.14
2019-06-23T20:41:10.714Z,76.78
2019-06-23T20:43:48.597Z,76.15
2019-06-23T20:46:20.655Z,75.93
2019-06-23T20:48:53.460Z,75.86
2019-06-23T20:51:26.452Z,75.56
2019-06-23T20:53:59.451Z,75.30
2019-06-23T20:56:35.508Z,75.93
2019-06-23T20:59:08.498Z,74.57
2019-06-23T21:01:41.164Z,74.89
2019-06-23T21:04:15.827Z,74.89
2019-06-23T21:06:47.467Z,74.86
2019-06-23T21:09:23.958Z,74.23
2019-06-23T21:11:58.589Z,73.86
2019-06-23T21:14:31.654Z,73.70
2019-06-23T21:17:07.192Z,73.70
2019-06-23T21:19:40.671Z,73.75
2019-06-23T21:22:25.171Z,73.34
2019-06-23T21:25:10.397Z,73.68
2019-06-23T21:27:43.783Z,73.32
2019-06-23T21:30:56.377Z,73.44
2019-06-23T21:33:28.637Z,73.33
2019-06-23T21:36:08.957Z,73.21
2019-06-23T21:38:46.524Z,73.54
2019-06-23T21:41:28.962Z,74.64
2019-06-23T21:44:04.591Z,74.78
2019-06-23T21:46:38.108Z,75.22
2019-06-23T21:49:11.719Z,75.58
2019-06-23T21:51:46.442Z,74.47
2019-06-23T21:54:19.846Z,74.16
2019-06-23T21:57:05.880Z,73.72
2019-06-23T21:59:37.802Z,73.42
2019-06-23T22:02:10.474Z,73.00
2019-06-23T22:04:41.985Z,73.67
2019-06-23T22:07:15.863Z,72.27
2019-06-23T22:09:47.787Z,70.78
2019-06-23T22:12:21.270Z,69.79
2019-06-23T22:14:55.888Z,69.50
2019-06-23T22:17:27.082Z,69.42
2019-06-23T22:20:02.176Z,69.07
2019-06-23T22:22:35.002Z,69.19
2019-06-23T22:25:06.359Z,68.96
2019-06-23T22:27:39.818Z,68.79
2019-06-23T22:30:12.513Z,69.25
2019-06-23T22:32:55.731Z,69.50
2019-06-23T22:35:38.850Z,69.23
2019-06-23T22:38:12.443Z,69.54
2019-06-23T22:40:44.043Z,69.13
2019-06-23T22:43:17.015Z,68.84
2019-06-23T22:45:51.137Z,68.61
2019-06-23T22:48:22.987Z,68.30
2019-06-23T22:50:57.273Z,68.04
2019-06-23T22:53:30.249Z,69.55
2019-06-23T22:56:03.615Z,71.38
2019-06-23T22:58:36.696Z,72.80
2019-06-23T23:01:09.331Z,73.73
2019-06-23T23:03:42.311Z,74.24
2019-06-23T23:06:14.213Z,74.88
2019-06-23T23:08:47.355Z,75.29
2019-06-23T23:11:23.263Z,75.49
2019-06-23T23:13:57.216Z,75.57
2019-06-23T23:16:31.267Z,75.74
2019-06-23T23:19:04.141Z,75.99
2019-06-23T23:21:36.205Z,75.82
2019-06-23T23:24:09.108Z,75.99
2019-06-23T23:26:40.690Z,75.76
2019-06-23T23:29:12.480Z,75.90
2019-06-23T23:31:44.476Z,75.42
2019-06-23T23:34:18.302Z,75.50
2019-06-23T23:36:51.308Z,74.92
2019-06-23T23:39:24.296Z,75.07
2019-06-23T23:41:59.159Z,74.97
2019-06-23T23:44:32.399Z,75.04
2019-06-23T23:47:07.894Z,75.10
2019-06-23T23:49:41.468Z,74.42
2019-06-23T23:52:15.375Z,73.90
2019-06-23T23:54:50.455Z,72.57
2019-06-23T23:57:24.444Z,72.51
2019-06-23T23:59:57.387Z,71.59
